East Vail, Colorado
Current Conditions -  °F | °C
As of 1:35 AM on Saturday 20 Dec 2014 (Local Time) from KCCU Reporting Station
Overcast Overcast  
Wind Chill:   Ceiling: 1700
Heat Index: 19°   Visibility: NA
Dew Point: 12°   Wind: 8mph
Humidity: 74%   Direction: 240°WSW
Pressure: 30.12"   Gusts: 20mph
Location:  39.5908°N, 106.4°W
Report Text: KCCU 200835Z AUTO 24007G17KT BKN017 OVC037 M07/M11 A3012 RMK AO2 PWINO
Loading
Personal Weather Stations






























Interactive Weather Map New forecast layout! Learn more

10-Day Weather Forecast

Advertisements
Track Severe Weather on mobile